createdAt,value
2023-02-18T00:01:33.371Z,89.50
2023-02-18T00:04:01.866Z,84.82
2023-02-18T00:06:32.983Z,89.85
2023-02-18T00:09:02.380Z,83.10
2023-02-18T00:11:31.719Z,86.55
2023-02-18T00:14:01.367Z,81.90
2023-02-18T00:16:30.673Z,55.65
2023-02-18T00:18:59.312Z,54.20
2023-02-18T00:21:27.279Z,47.17
2023-02-18T00:23:56.255Z,57.70
2023-02-18T00:26:23.823Z,52.63
2023-02-18T00:28:52.939Z,40.90
2023-02-18T00:31:23.158Z,51.55
2023-02-18T00:33:51.199Z,96.78
2023-02-18T00:36:20.677Z,60.03
2023-02-18T00:38:50.048Z,85.18
2023-02-18T00:41:19.038Z,65.03
2023-02-18T00:43:46.556Z,88.88
2023-02-18T00:46:14.271Z,86.70
2023-02-18T00:48:41.840Z,85.35
2023-02-18T00:51:09.860Z,57.65
2023-02-18T00:53:38.162Z,59.22
2023-02-18T00:56:07.422Z,43.20
2023-02-18T00:58:37.280Z,44.13
2023-02-18T01:01:07.492Z,67.57
2023-02-18T01:03:35.628Z,38.58
2023-02-18T01:06:03.458Z,17.80
2023-02-18T01:08:31.000Z,18.88
2023-02-18T01:10:59.735Z,7.13
2023-02-18T01:13:30.414Z,8.77
2023-02-18T01:15:59.529Z,17.52
2023-02-18T01:18:27.998Z,28.73
2023-02-18T01:20:55.535Z,28.80
2023-02-18T01:23:23.785Z,24.70
2023-02-18T01:25:51.311Z,11.05
2023-02-18T01:28:21.109Z,7.00
2023-02-18T01:30:49.893Z,7.32
2023-02-18T01:33:19.970Z,7.78
2023-02-18T01:35:48.643Z,6.10
2023-02-18T01:38:16.210Z,7.57
2023-02-18T01:40:51.262Z,7.57
2023-02-18T01:43:20.762Z,11.07
2023-02-18T01:46:08.419Z,6.63
2023-02-18T01:48:40.837Z,8.20
2023-02-18T01:51:12.806Z,9.88
2023-02-18T01:53:47.918Z,13.77
2023-02-18T01:56:23.602Z,13.07
2023-02-18T01:58:53.070Z,11.93
2023-02-18T02:01:20.778Z,27.52
2023-02-18T02:03:49.793Z,16.42
2023-02-18T02:06:19.403Z,27.65
2023-02-18T02:08:49.784Z,17.05
2023-02-18T02:11:30.428Z,52.90
2023-02-18T02:14:14.686Z,78.80
2023-02-18T02:16:50.297Z,37.50
2023-02-18T02:19:43.159Z,52.00
2023-02-18T02:22:44.888Z,27.15
2023-02-18T02:25:22.561Z,34.80
2023-02-18T02:28:12.415Z,10.38
2023-02-18T02:30:59.647Z,11.77
2023-02-18T02:34:28.079Z,15.93
2023-02-18T02:37:02.175Z,13.10
2023-02-18T02:39:38.830Z,17.98
2023-02-18T02:42:14.439Z,11.75
2023-02-18T02:44:50.682Z,11.70
2023-02-18T02:47:25.802Z,15.00
2023-02-18T02:50:01.674Z,13.93
2023-02-18T02:52:33.146Z,69.63
2023-02-18T02:55:00.757Z,65.07
2023-02-18T02:57:49.475Z,39.78
2023-02-18T03:00:19.855Z,77.70
2023-02-18T03:03:04.356Z,79.97
2023-02-18T03:05:46.365Z,74.82
2023-02-18T03:08:31.932Z,90.10
2023-02-18T03:11:05.458Z,82.95
2023-02-18T03:13:52.313Z,68.68
2023-02-18T03:16:27.544Z,98.20
2023-02-18T03:19:00.950Z,91.47
2023-02-18T03:21:32.990Z,72.20
2023-02-18T03:24:04.634Z,87.07
2023-02-18T03:26:35.481Z,62.58
2023-02-18T03:29:06.584Z,80.43
2023-02-18T03:31:38.254Z,52.70
2023-02-18T03:34:11.022Z,43.50
2023-02-18T03:36:40.438Z,90.28
2023-02-18T03:39:11.936Z,74.20
2023-02-18T03:41:39.501Z,74.88
2023-02-18T03:44:09.849Z,93.78
2023-02-18T03:46:39.479Z,68.40
2023-02-18T03:49:07.665Z,43.55
2023-02-18T03:51:35.127Z,76.50
2023-02-18T03:54:03.988Z,43.85
2023-02-18T03:56:31.495Z,77.32
2023-02-18T03:58:59.528Z,56.13
2023-02-18T04:01:27.175Z,53.13
2023-02-18T04:03:55.480Z,58.53
2023-02-18T04:06:23.323Z,31.80
2023-02-18T04:08:51.481Z,47.03
2023-02-18T04:11:20.429Z,15.85
2023-02-18T04:13:47.999Z,15.95
2023-02-18T04:16:15.579Z,31.98
2023-02-18T04:18:43.112Z,41.33
2023-02-18T04:21:10.594Z,18.25
2023-02-18T04:23:38.068Z,18.92
2023-02-18T04:26:05.894Z,21.63
2023-02-18T04:28:34.776Z,19.95
2023-02-18T04:31:02.363Z,20.33
2023-02-18T04:33:29.917Z,24.50
2023-02-18T04:35:57.375Z,24.48
2023-02-18T04:38:24.904Z,19.48
2023-02-18T04:40:52.435Z,34.42
2023-02-18T04:43:19.918Z,18.27
2023-02-18T04:45:48.771Z,28.77
2023-02-18T04:48:16.265Z,33.10
2023-02-18T04:50:45.184Z,21.05
2023-02-18T04:53:12.692Z,29.88
2023-02-18T04:55:40.169Z,31.88
2023-02-18T04:58:07.796Z,23.92
2023-02-18T05:00:35.306Z,32.25
2023-02-18T05:03:04.452Z,22.30
2023-02-18T05:05:31.935Z,47.50
2023-02-18T05:07:59.428Z,49.15
2023-02-18T05:10:26.915Z,68.28
2023-02-18T05:12:54.446Z,70.20
2023-02-18T05:15:21.937Z,44.80
2023-02-18T05:17:49.399Z,64.30
2023-02-18T05:20:18.422Z,36.60
2023-02-18T05:22:45.886Z,34.92
2023-02-18T05:25:13.537Z,15.88
2023-02-18T05:27:41.032Z,48.75
2023-02-18T05:30:09.716Z,85.63
2023-02-18T05:32:37.216Z,93.40
2023-02-18T05:35:05.128Z,15.50
2023-02-18T05:37:33.968Z,10.60
2023-02-18T05:40:01.563Z,14.75
2023-02-18T05:42:29.046Z,13.68
2023-02-18T05:44:56.536Z,11.48
2023-02-18T05:47:23.994Z,13.48
2023-02-18T05:49:51.808Z,17.45
2023-02-18T05:52:19.388Z,11.90
2023-02-18T05:54:48.235Z,16.95
2023-02-18T05:57:16.007Z,22.67
2023-02-18T05:59:43.481Z,18.20
2023-02-18T06:02:10.961Z,47.83
2023-02-18T06:04:39.175Z,59.05
2023-02-18T06:07:06.696Z,51.25
2023-02-18T06:09:34.402Z,88.70
2023-02-18T06:12:03.222Z,55.83
2023-02-18T06:14:30.682Z,37.38
2023-02-18T06:16:58.168Z,57.80
2023-02-18T06:19:25.657Z,42.88
2023-02-18T06:21:53.152Z,28.08
2023-02-18T06:24:20.685Z,28.52
2023-02-18T06:26:48.149Z,19.23
2023-02-18T06:29:16.960Z,27.85
2023-02-18T06:31:44.597Z,53.08
2023-02-18T06:34:12.195Z,42.17
2023-02-18T06:36:40.323Z,143.45
2023-02-18T06:39:08.050Z,165.25
2023-02-18T06:41:35.880Z,54.55
2023-02-18T06:44:03.438Z,33.05
2023-02-18T06:46:32.281Z,36.08
2023-02-18T06:48:59.749Z,28.42
2023-02-18T06:51:27.282Z,23.35
2023-02-18T06:53:54.745Z,17.23
2023-02-18T06:56:22.238Z,16.42
2023-02-18T06:58:49.692Z,11.38
2023-02-18T07:01:17.214Z,11.43
2023-02-18T07:03:47.831Z,10.73
2023-02-18T07:06:16.539Z,8.98
2023-02-18T07:08:44.001Z,10.82
2023-02-18T07:11:11.617Z,9.45
2023-02-18T07:13:39.115Z,9.23
2023-02-18T07:16:07.441Z,11.40
2023-02-18T07:18:35.161Z,11.52
2023-02-18T07:21:04.141Z,11.55
2023-02-18T07:23:31.626Z,11.23
2023-02-18T07:26:08.369Z,11.13
2023-02-18T07:28:36.286Z,11.65
2023-02-18T07:31:04.082Z,12.63
2023-02-18T07:33:31.663Z,11.07
2023-02-18T07:36:02.168Z,10.88
2023-02-18T07:38:31.782Z,11.75
2023-02-18T07:40:59.810Z,10.57
2023-02-18T07:43:27.301Z,11.15
2023-02-18T07:45:54.975Z,11.55
2023-02-18T07:48:22.529Z,73.28
2023-02-18T07:50:49.997Z,9.23
2023-02-18T07:53:18.048Z,11.25
2023-02-18T07:55:53.042Z,12.77
2023-02-18T07:58:22.839Z,13.93
2023-02-18T08:00:50.828Z,14.98
2023-02-18T08:03:19.739Z,14.93
2023-02-18T08:05:49.329Z,16.08
2023-02-18T08:08:20.343Z,16.48
2023-02-18T08:10:49.933Z,15.77
2023-02-18T08:13:17.708Z,33.70
2023-02-18T08:15:45.234Z,34.40
2023-02-18T08:18:16.785Z,25.08
2023-02-18T08:20:44.284Z,28.65
2023-02-18T08:23:12.296Z,53.75
2023-02-18T08:25:39.924Z,86.18
2023-02-18T08:28:08.717Z,85.72
2023-02-18T08:30:36.282Z,27.40
2023-02-18T08:33:03.846Z,10.45
2023-02-18T08:35:31.440Z,38.10
2023-02-18T08:37:58.896Z,48.05
2023-02-18T08:40:26.350Z,51.72
2023-02-18T08:42:53.801Z,70.72
2023-02-18T08:45:23.600Z,62.20
2023-02-18T08:48:18.755Z,59.83
2023-02-18T08:50:38.678Z,76.22
2023-02-18T08:53:06.322Z,73.55
2023-02-18T08:55:35.383Z,74.63
2023-02-18T08:58:02.878Z,64.57
2023-02-18T09:00:31.728Z,52.38
2023-02-18T09:02:59.188Z,66.53
2023-02-18T09:05:26.672Z,43.45
2023-02-18T09:07:54.146Z,48.08
2023-02-18T09:10:21.948Z,48.45
2023-02-18T09:12:49.425Z,59.38
2023-02-18T09:15:17.550Z,63.42
2023-02-18T09:17:46.364Z,51.88
2023-02-18T09:20:14.363Z,36.17
2023-02-18T09:22:41.886Z,51.25
2023-02-18T09:25:09.490Z,50.42
2023-02-18T09:27:37.075Z,35.63
2023-02-18T09:30:07.127Z,54.00
2023-02-18T09:32:35.556Z,43.78
2023-02-18T09:35:05.992Z,44.53
2023-02-18T09:37:33.553Z,36.42
2023-02-18T09:40:01.065Z,60.72
2023-02-18T09:42:33.137Z,60.47
2023-02-18T09:45:03.405Z,56.78
2023-02-18T09:47:34.363Z,57.25
2023-02-18T09:50:08.727Z,63.92
2023-02-18T09:52:38.510Z,61.72
2023-02-18T09:55:21.006Z,34.03
2023-02-18T09:57:52.234Z,26.33
2023-02-18T10:00:24.020Z,28.67
2023-02-18T10:02:57.911Z,19.35
2023-02-18T10:05:30.127Z,24.33
2023-02-18T10:08:01.990Z,18.38
2023-02-18T10:10:38.017Z,22.35
2023-02-18T10:13:13.000Z,8.27
2023-02-18T10:15:44.033Z,4.05
2023-02-18T10:18:23.869Z,5.18
2023-02-18T10:20:53.926Z,4.65
2023-02-18T10:23:23.004Z,13.70
2023-02-18T10:25:52.103Z,9.40
2023-02-18T10:28:23.626Z,13.32
2023-02-18T10:30:58.332Z,23.00
2023-02-18T10:33:34.849Z,20.13
2023-02-18T10:36:16.813Z,23.17
2023-02-18T10:38:52.337Z,8.63
2023-02-18T10:41:25.943Z,5.60
2023-02-18T10:44:10.124Z,3.65
2023-02-18T10:46:49.672Z,12.35
2023-02-18T10:49:38.966Z,14.43
2023-02-18T10:52:10.270Z,5.75
2023-02-18T10:54:51.545Z,3.33
2023-02-18T10:57:20.495Z,6.72
2023-02-18T10:59:57.124Z,5.03
2023-02-18T11:02:29.755Z,4.22
2023-02-18T11:04:58.764Z,5.82
2023-02-18T11:07:32.258Z,3.17
2023-02-18T11:10:01.728Z,5.18
2023-02-18T11:12:34.927Z,4.88
2023-02-18T11:15:17.290Z,3.45
2023-02-18T11:17:46.263Z,7.22
2023-02-18T11:20:27.018Z,5.85
2023-02-18T11:23:01.028Z,4.88
2023-02-18T11:25:33.453Z,3.42
2023-02-18T11:28:03.033Z,8.52
2023-02-18T11:30:34.645Z,11.32
2023-02-18T11:33:08.152Z,9.50
2023-02-18T11:35:36.414Z,3.05
2023-02-18T11:38:19.100Z,7.22
2023-02-18T11:40:56.225Z,20.17
2023-02-18T11:43:23.849Z,3.72
2023-02-18T11:46:09.957Z,4.07
2023-02-18T11:48:37.716Z,6.05
2023-02-18T11:51:07.415Z,3.25
2023-02-18T11:53:37.915Z,7.13
2023-02-18T11:56:08.100Z,8.40
2023-02-18T11:58:41.404Z,7.07
2023-02-18T12:01:16.719Z,2.50
2023-02-18T12:03:49.846Z,2.72
2023-02-18T12:06:23.234Z,10.73
2023-02-18T12:08:55.052Z,4.00
2023-02-18T12:11:29.576Z,2.45
2023-02-18T12:13:59.396Z,14.23
2023-02-18T12:16:37.174Z,7.68
2023-02-18T12:19:22.195Z,7.43
2023-02-18T12:21:58.986Z,2.20
2023-02-18T12:24:42.535Z,4.88
2023-02-18T12:27:19.319Z,2.92
2023-02-18T12:30:04.444Z,3.65
2023-02-18T12:32:43.580Z,2.38
2023-02-18T12:35:52.922Z,4.70
2023-02-18T12:38:54.102Z,6.85
2023-02-18T12:41:38.010Z,2.15
2023-02-18T12:44:19.085Z,2.83
2023-02-18T12:47:05.769Z,2.88
2023-02-18T12:49:51.942Z,2.80
2023-02-18T12:52:32.428Z,2.45
2023-02-18T12:55:22.538Z,3.00
2023-02-18T12:57:56.828Z,5.18
2023-02-18T13:00:51.381Z,5.03
2023-02-18T13:03:39.372Z,6.38
2023-02-18T13:06:20.324Z,4.03
2023-02-18T13:09:01.105Z,7.15
2023-02-18T13:11:42.718Z,3.65
2023-02-18T13:14:15.698Z,7.68
2023-02-18T13:16:46.882Z,7.13
2023-02-18T13:19:21.465Z,2.90
2023-02-18T13:21:51.278Z,4.53
2023-02-18T13:24:27.984Z,2.80
2023-02-18T13:27:03.944Z,2.15
2023-02-18T13:29:40.402Z,3.28
2023-02-18T13:32:19.326Z,2.78
2023-02-18T13:34:52.681Z,7.95
2023-02-18T13:37:28.438Z,10.95
2023-02-18T13:39:58.258Z,10.98
2023-02-18T13:42:34.528Z,11.90
2023-02-18T13:45:26.285Z,16.52
2023-02-18T13:47:54.442Z,8.10
2023-02-18T13:50:29.086Z,2.95
2023-02-18T13:53:19.709Z,3.78
2023-02-18T13:55:53.559Z,4.43
2023-02-18T13:58:23.720Z,5.78
2023-02-18T14:00:56.762Z,2.75
2023-02-18T14:03:38.147Z,4.13
2023-02-18T14:06:16.548Z,8.32
2023-02-18T14:08:45.375Z,3.92
2023-02-18T14:11:40.268Z,3.50
2023-02-18T14:14:37.033Z,2.10
2023-02-18T14:17:43.822Z,2.67
2023-02-18T14:20:45.324Z,2.50
2023-02-18T14:23:28.760Z,2.78
2023-02-18T14:25:59.687Z,4.82
2023-02-18T14:28:41.160Z,5.05
2023-02-18T14:31:30.560Z,2.92
2023-02-18T14:34:22.658Z,2.83
2023-02-18T14:37:00.398Z,5.72
2023-02-18T14:39:44.716Z,3.03
2023-02-18T14:42:21.760Z,2.38
2023-02-18T14:45:09.575Z,2.65
2023-02-18T14:47:51.946Z,2.47
2023-02-18T14:50:22.830Z,25.00
2023-02-18T14:52:53.838Z,11.45
2023-02-18T14:55:25.239Z,9.25
2023-02-18T14:57:56.100Z,3.38
2023-02-18T15:00:25.536Z,2.67
2023-02-18T15:02:55.422Z,10.05
2023-02-18T15:05:27.120Z,5.18
2023-02-18T15:08:00.050Z,8.27
2023-02-18T15:10:36.755Z,47.97
2023-02-18T15:13:06.547Z,2.83
2023-02-18T15:15:35.834Z,3.83
2023-02-18T15:18:05.192Z,5.50
2023-02-18T15:20:36.091Z,20.63
2023-02-18T15:23:03.646Z,3.22
2023-02-18T15:25:31.191Z,3.78
2023-02-18T15:27:58.706Z,3.45
2023-02-18T15:30:29.036Z,6.78
2023-02-18T15:32:58.874Z,5.07
2023-02-18T15:35:30.024Z,7.03
2023-02-18T15:38:00.874Z,3.60
2023-02-18T15:40:32.313Z,3.97
2023-02-18T15:43:01.729Z,3.35
2023-02-18T15:45:34.045Z,5.65
2023-02-18T15:48:02.364Z,3.90
2023-02-18T15:50:32.755Z,13.95
2023-02-18T15:53:08.200Z,6.80
2023-02-18T15:55:39.221Z,3.40
2023-02-18T15:58:13.041Z,4.18
2023-02-18T16:00:42.825Z,5.35
2023-02-18T16:03:15.953Z,6.68
2023-02-18T16:05:43.906Z,4.72
2023-02-18T16:08:17.568Z,4.55
2023-02-18T16:10:50.470Z,6.95
2023-02-18T16:13:19.599Z,8.27
2023-02-18T16:15:49.196Z,9.15
2023-02-18T16:18:24.349Z,3.90
2023-02-18T16:20:56.984Z,10.68
2023-02-18T16:23:34.669Z,3.92
2023-02-18T16:26:29.746Z,4.55
2023-02-18T16:29:04.140Z,4.10
2023-02-18T16:31:31.848Z,3.15
2023-02-18T16:33:59.340Z,5.70
2023-02-18T16:36:27.085Z,7.63
2023-02-18T16:38:55.896Z,21.42
2023-02-18T16:41:23.362Z,11.68
2023-02-18T16:43:50.886Z,6.07
2023-02-18T16:46:22.057Z,3.70
2023-02-18T16:48:51.640Z,5.32
2023-02-18T16:51:23.143Z,4.40
2023-02-18T16:53:50.602Z,7.68
2023-02-18T16:56:21.350Z,14.70
2023-02-18T16:58:50.510Z,15.60
2023-02-18T17:01:24.305Z,11.32
2023-02-18T17:03:56.735Z,8.82
2023-02-18T17:06:24.214Z,8.20
2023-02-18T17:08:51.861Z,7.82
2023-02-18T17:11:25.634Z,5.82
2023-02-18T17:13:54.594Z,11.25
2023-02-18T17:16:22.875Z,9.90
2023-02-18T17:18:50.911Z,8.68
2023-02-18T17:21:20.902Z,9.05
2023-02-18T17:23:49.320Z,15.40
2023-02-18T17:26:24.527Z,30.90
2023-02-18T17:28:52.679Z,10.13
2023-02-18T17:31:23.894Z,36.00
2023-02-18T17:33:51.577Z,70.22
2023-02-18T17:36:19.096Z,16.30
2023-02-18T17:38:46.816Z,41.20
2023-02-18T17:41:14.550Z,37.42
2023-02-18T17:43:43.621Z,21.20
2023-02-18T17:46:13.739Z,44.97
2023-02-18T17:48:41.250Z,70.45
2023-02-18T17:51:09.476Z,44.85
2023-02-18T17:53:37.016Z,82.13
2023-02-18T17:56:04.771Z,96.00
2023-02-18T17:58:32.234Z,61.88
2023-02-18T18:01:01.149Z,20.45
2023-02-18T18:03:28.767Z,15.27
2023-02-18T18:05:57.529Z,8.35
2023-02-18T18:08:25.021Z,14.82
2023-02-18T18:10:55.601Z,15.52
2023-02-18T18:13:25.444Z,8.63
2023-02-18T18:15:53.559Z,8.88
2023-02-18T18:18:23.112Z,7.95
2023-02-18T18:20:53.030Z,24.92
2023-02-18T18:23:22.580Z,14.48
2023-02-18T18:25:51.707Z,19.33
2023-02-18T18:28:19.721Z,12.48
2023-02-18T18:30:49.380Z,45.50
2023-02-18T18:33:20.274Z,25.33
2023-02-18T18:35:51.752Z,50.25
2023-02-18T18:38:21.116Z,22.15
2023-02-18T18:40:49.648Z,13.32
2023-02-18T18:43:19.570Z,14.18
2023-02-18T18:45:47.534Z,10.40
2023-02-18T18:48:15.171Z,17.45
2023-02-18T18:50:43.193Z,39.67
2023-02-18T18:53:18.557Z,45.83
2023-02-18T18:55:46.447Z,50.78
2023-02-18T18:58:13.915Z,46.30
2023-02-18T19:00:43.489Z,16.73
2023-02-18T19:03:12.491Z,46.03
2023-02-18T19:05:42.363Z,20.10
2023-02-18T19:08:11.402Z,42.72
2023-02-18T19:10:42.196Z,17.20
2023-02-18T19:13:13.756Z,21.33
2023-02-18T19:15:41.631Z,10.18
2023-02-18T19:18:13.588Z,24.48
2023-02-18T19:20:42.975Z,10.02
2023-02-18T19:23:10.894Z,10.23
2023-02-18T19:25:40.230Z,10.40
2023-02-18T19:28:10.159Z,11.27
2023-02-18T19:30:37.966Z,22.27
2023-02-18T19:33:06.977Z,29.42
2023-02-18T19:35:34.543Z,22.55
2023-02-18T19:38:02.214Z,11.18
2023-02-18T19:40:31.439Z,10.75
2023-02-18T19:43:00.249Z,12.30
2023-02-18T19:45:27.778Z,21.83
2023-02-18T19:47:56.210Z,14.00
2023-02-18T19:50:24.347Z,15.02
2023-02-18T19:52:52.638Z,12.23
2023-02-18T19:55:20.440Z,15.35
2023-02-18T19:57:47.992Z,14.60
2023-02-18T20:00:18.634Z,23.27
2023-02-18T20:02:46.561Z,17.80
2023-02-18T20:05:14.985Z,16.17
2023-02-18T20:07:43.110Z,17.63
2023-02-18T20:10:12.817Z,32.10
2023-02-18T20:12:40.366Z,21.25
2023-02-18T20:15:08.576Z,46.13
2023-02-18T20:17:38.224Z,54.60
2023-02-18T20:20:06.733Z,33.95
2023-02-18T20:22:34.419Z,13.68
2023-02-18T20:25:01.963Z,56.00
2023-02-18T20:27:29.498Z,34.28
2023-02-18T20:29:57.010Z,17.05
2023-02-18T20:32:24.626Z,22.35
2023-02-18T20:34:53.585Z,11.15
2023-02-18T20:37:21.075Z,32.80
2023-02-18T20:39:48.732Z,46.20
2023-02-18T20:42:17.169Z,53.53
2023-02-18T20:44:44.981Z,26.03
2023-02-18T20:47:13.397Z,45.95
2023-02-18T20:49:41.140Z,67.00
2023-02-18T20:52:10.795Z,55.38
2023-02-18T20:54:38.310Z,66.32
2023-02-18T20:57:05.853Z,68.25
2023-02-18T20:59:33.849Z,76.93
2023-02-18T21:02:01.837Z,77.03
2023-02-18T21:04:29.425Z,74.65
2023-02-18T21:06:56.924Z,54.92
2023-02-18T21:09:25.979Z,42.10
2023-02-18T21:11:53.489Z,40.72
2023-02-18T21:14:21.111Z,50.10
2023-02-18T21:16:48.889Z,44.70
2023-02-18T21:19:18.735Z,53.50
2023-02-18T21:21:47.797Z,57.67
2023-02-18T21:24:15.313Z,12.95
2023-02-18T21:26:44.119Z,33.58
2023-02-18T21:29:11.816Z,32.05
2023-02-18T21:31:41.173Z,63.75
2023-02-18T21:34:12.395Z,56.58
2023-02-18T21:36:40.702Z,49.03
2023-02-18T21:39:10.438Z,48.97
2023-02-18T21:41:40.789Z,60.80
2023-02-18T21:44:10.352Z,68.30
2023-02-18T21:46:38.290Z,57.50
2023-02-18T21:49:12.535Z,50.65
2023-02-18T21:52:01.866Z,34.67
2023-02-18T21:54:31.917Z,34.95
2023-02-18T21:57:00.949Z,49.30
2023-02-18T21:59:30.844Z,29.77
2023-02-18T22:02:00.412Z,37.03
2023-02-18T22:04:28.727Z,41.58
2023-02-18T22:06:56.284Z,19.33
2023-02-18T22:09:23.777Z,10.30
2023-02-18T22:11:51.421Z,30.60
2023-02-18T22:14:19.242Z,44.33
2023-02-18T22:16:48.468Z,45.85
2023-02-18T22:19:16.220Z,56.60
2023-02-18T22:21:44.665Z,46.58
2023-02-18T22:24:13.686Z,34.22
2023-02-18T22:26:41.684Z,52.63
2023-02-18T22:29:09.201Z,48.58
2023-02-18T22:31:36.752Z,54.53
2023-02-18T22:34:06.596Z,46.58
2023-02-18T22:36:34.331Z,20.73
2023-02-18T22:39:02.433Z,25.95
2023-02-18T22:41:35.267Z,47.45
2023-02-18T22:44:04.900Z,46.03
2023-02-18T22:46:34.538Z,52.97
2023-02-18T22:49:04.170Z,43.70
2023-02-18T22:51:37.590Z,38.87
2023-02-18T22:54:06.008Z,34.90
2023-02-18T22:56:33.508Z,29.52
2023-02-18T22:59:01.141Z,29.85
2023-02-18T23:01:31.069Z,23.48
2023-02-18T23:04:04.406Z,37.17
2023-02-18T23:06:33.464Z,17.80
2023-02-18T23:09:01.146Z,15.18
2023-02-18T23:11:28.791Z,21.00
2023-02-18T23:14:15.000Z,6.80
2023-02-18T23:17:00.512Z,8.97
2023-02-18T23:19:30.188Z,7.90
2023-02-18T23:21:59.509Z,7.75
2023-02-18T23:24:27.217Z,7.35
2023-02-18T23:26:54.744Z,11.82
2023-02-18T23:29:22.383Z,7.47
2023-02-18T23:31:49.927Z,9.20
2023-02-18T23:34:18.129Z,8.77
2023-02-18T23:36:47.250Z,14.60
2023-02-18T23:39:19.888Z,8.60
2023-02-18T23:41:47.715Z,8.20
2023-02-18T23:44:17.645Z,8.13
2023-02-18T23:46:45.591Z,8.98
2023-02-18T23:49:15.892Z,9.93
2023-02-18T23:51:43.692Z,8.90
2023-02-18T23:54:11.971Z,10.45
2023-02-18T23:56:41.286Z,8.30
2023-02-18T23:59:09.096Z,9.23
